createdAt,value
2023-02-08T00:00:48.303Z,19.91
2023-02-08T00:03:51.500Z,18.71
2023-02-08T00:06:54.016Z,18.76
2023-02-08T00:09:58.769Z,19.68
2023-02-08T00:13:01.255Z,19.37
2023-02-08T00:16:04.433Z,18.92
2023-02-08T00:19:06.620Z,19.38
2023-02-08T00:22:11.675Z,20.24
2023-02-08T00:25:13.749Z,18.72
2023-02-08T00:28:17.173Z,19.34
2023-02-08T00:31:19.360Z,19.99
2023-02-08T00:34:21.559Z,18.77
2023-02-08T00:37:24.346Z,19.45
2023-02-08T00:40:27.288Z,20.02
2023-02-08T00:43:29.440Z,19.72
2023-02-08T00:46:33.254Z,19.12
2023-02-08T00:49:35.434Z,19.44
2023-02-08T00:52:38.758Z,19.98
2023-02-08T00:55:41.412Z,18.42
2023-02-08T00:58:44.978Z,19.63
2023-02-08T01:01:49.148Z,19.93
2023-02-08T01:04:51.354Z,18.55
2023-02-08T01:07:53.638Z,19.16
2023-02-08T01:11:04.676Z,19.63
2023-02-08T01:14:06.922Z,19.01
2023-02-08T01:17:09.099Z,18.79
2023-02-08T01:20:11.985Z,19.71
2023-02-08T01:23:14.131Z,20.13
2023-02-08T01:26:18.205Z,18.97
2023-02-08T01:29:20.730Z,19.88
2023-02-08T01:32:22.847Z,20.25
2023-02-08T01:35:24.998Z,18.58
2023-02-08T01:38:27.064Z,19.43
2023-02-08T01:41:32.686Z,20.17
2023-02-08T01:45:12.110Z,19.04
2023-02-08T01:48:23.361Z,19.23
2023-02-08T01:51:31.573Z,19.72
2023-02-08T01:54:39.160Z,18.93
2023-02-08T01:57:43.011Z,18.59
2023-02-08T02:00:45.991Z,19.67
2023-02-08T02:03:48.275Z,20.06
2023-02-08T02:06:58.910Z,18.53
2023-02-08T02:10:11.032Z,19.44
2023-02-08T02:13:24.964Z,20.25
2023-02-08T02:16:27.116Z,18.63
2023-02-08T02:19:31.999Z,19.27
2023-02-08T02:23:01.945Z,20.09
2023-02-08T02:26:40.693Z,18.31
2023-02-08T02:30:10.587Z,19.78
2023-02-08T02:33:16.501Z,20.36
2023-02-08T02:36:32.750Z,18.10
2023-02-08T02:39:58.701Z,19.03
2023-02-08T02:43:21.922Z,19.57
2023-02-08T02:46:29.121Z,18.18
2023-02-08T02:49:38.594Z,19.12
2023-02-08T02:52:48.798Z,19.64
2023-02-08T02:55:58.854Z,18.24
2023-02-08T02:59:05.682Z,18.59
2023-02-08T03:02:09.066Z,19.40
2023-02-08T03:05:13.672Z,19.27
2023-02-08T03:08:40.457Z,18.75
2023-02-08T03:11:53.451Z,19.90
2023-02-08T03:15:16.812Z,19.41
2023-02-08T03:18:21.571Z,18.52
2023-02-08T03:21:35.493Z,19.77
2023-02-08T03:24:37.532Z,19.83
2023-02-08T03:27:49.601Z,18.25
2023-02-08T03:31:13.324Z,19.21
2023-02-08T03:34:19.298Z,19.75
2023-02-08T03:37:30.255Z,18.05
2023-02-08T03:40:56.333Z,18.86
2023-02-08T03:44:06.386Z,19.72
2023-02-08T03:47:19.914Z,18.11
2023-02-08T03:50:24.231Z,18.70
2023-02-08T03:53:27.763Z,19.66
2023-02-08T03:56:41.852Z,18.09
2023-02-08T03:59:50.312Z,18.40
2023-02-08T04:02:57.862Z,19.32
2023-02-08T04:06:00.181Z,18.42
2023-02-08T04:09:02.266Z,17.96
2023-02-08T04:12:05.731Z,18.95
2023-02-08T04:15:08.767Z,18.69
2023-02-08T04:18:11.002Z,17.50
2023-02-08T04:21:13.525Z,18.38
2023-02-08T04:24:15.556Z,19.25
2023-02-08T04:27:17.841Z,17.85
2023-02-08T04:30:20.010Z,17.77
2023-02-08T04:33:22.159Z,18.61
2023-02-08T04:36:24.364Z,17.99
2023-02-08T04:39:26.455Z,17.76
2023-02-08T04:42:28.553Z,18.33
2023-02-08T04:45:32.182Z,19.00
2023-02-08T04:48:34.750Z,17.48
2023-02-08T04:51:36.975Z,18.00
2023-02-08T04:54:40.858Z,18.71
2023-02-08T04:57:45.071Z,17.39
2023-02-08T05:00:47.104Z,18.39
2023-02-08T05:03:49.290Z,19.04
2023-02-08T05:06:51.292Z,17.80
2023-02-08T05:09:53.473Z,18.12
2023-02-08T05:12:55.447Z,18.69
2023-02-08T05:15:57.991Z,18.21
2023-02-08T05:19:01.106Z,18.64
2023-02-08T05:22:03.216Z,18.84
2023-02-08T05:25:05.754Z,18.15
2023-02-08T05:28:07.835Z,17.53
2023-02-08T05:31:24.872Z,18.22
2023-02-08T05:34:27.093Z,17.12
2023-02-08T05:37:29.106Z,16.94
2023-02-08T05:43:33.645Z,16.57
2023-02-08T05:46:38.074Z,16.60
2023-02-08T05:49:40.680Z,16.55
2023-02-08T05:52:42.781Z,16.69
2023-02-08T05:55:46.619Z,16.82
2023-02-08T05:58:48.702Z,16.53
2023-02-08T06:01:51.238Z,16.09
2023-02-08T06:04:53.338Z,16.18
2023-02-08T06:07:55.422Z,16.18
2023-02-08T06:10:57.465Z,16.20
2023-02-08T06:13:59.949Z,16.01
2023-02-08T06:17:01.941Z,15.93
2023-02-08T06:20:05.323Z,15.94
2023-02-08T06:23:07.513Z,15.90
2023-02-08T06:26:09.609Z,15.89
2023-02-08T06:29:11.710Z,16.13
2023-02-08T06:32:13.929Z,15.67
2023-02-08T06:35:16.175Z,15.71
2023-02-08T06:38:18.348Z,15.79
2023-02-08T06:41:20.959Z,15.76
2023-02-08T06:44:23.253Z,15.71
2023-02-08T06:47:30.965Z,15.97
2023-02-08T06:50:33.037Z,15.86
2023-02-08T06:53:35.135Z,15.87
2023-02-08T06:56:37.522Z,15.68
2023-02-08T06:59:40.388Z,15.70
2023-02-08T07:02:42.732Z,15.50
2023-02-08T07:05:58.686Z,15.74
2023-02-08T07:09:05.949Z,15.85
2023-02-08T07:12:08.356Z,15.79
2023-02-08T07:15:13.398Z,15.53
2023-02-08T07:18:15.634Z,15.38
2023-02-08T07:21:17.819Z,15.24
2023-02-08T07:24:20.744Z,15.07
2023-02-08T07:27:25.028Z,14.73
2023-02-08T07:30:28.230Z,14.80
2023-02-08T07:33:30.893Z,14.85
2023-02-08T07:36:38.120Z,15.27
2023-02-08T07:39:40.400Z,15.09
2023-02-08T07:42:42.478Z,14.09
2023-02-08T07:45:57.098Z,15.00
2023-02-08T07:48:59.257Z,15.10
2023-02-08T07:52:02.030Z,15.27
2023-02-08T07:55:04.240Z,15.85
2023-02-08T07:58:10.074Z,15.63
2023-02-08T08:01:22.358Z,15.41
2023-02-08T08:04:26.775Z,15.98
2023-02-08T08:07:28.794Z,16.19
2023-02-08T08:10:32.538Z,15.79
2023-02-08T08:13:36.846Z,15.92
2023-02-08T08:16:38.996Z,16.30
2023-02-08T08:19:41.602Z,16.94
2023-02-08T08:22:43.998Z,16.40
2023-02-08T08:25:46.228Z,16.77
2023-02-08T08:28:49.630Z,17.39
2023-02-08T08:31:58.826Z,16.77
2023-02-08T08:35:01.133Z,17.54
2023-02-08T08:38:09.302Z,18.12
2023-02-08T08:41:15.057Z,16.99
2023-02-08T08:44:17.775Z,17.16
2023-02-08T08:47:20.823Z,17.59
2023-02-08T08:50:23.377Z,17.71
2023-02-08T08:53:27.279Z,16.95
2023-02-08T08:56:30.241Z,17.63
2023-02-08T08:59:33.220Z,18.13
2023-02-08T09:02:35.598Z,17.09
2023-02-08T09:05:37.688Z,17.55
2023-02-08T09:08:41.311Z,18.16
2023-02-08T09:11:43.497Z,16.96
2023-02-08T09:14:45.597Z,17.27
2023-02-08T09:17:47.743Z,18.05
2023-02-08T09:20:50.266Z,17.78
2023-02-08T09:23:52.424Z,17.69
2023-02-08T09:26:55.619Z,17.74
2023-02-08T09:30:00.444Z,18.34
2023-02-08T09:33:06.273Z,17.69
2023-02-08T09:36:09.726Z,17.90
2023-02-08T09:39:19.268Z,18.31
2023-02-08T09:42:30.428Z,17.52
2023-02-08T09:46:08.296Z,18.42
2023-02-08T09:49:18.971Z,18.62
2023-02-08T09:52:27.801Z,17.05
2023-02-08T09:55:35.229Z,17.93
2023-02-08T09:58:44.955Z,19.01
2023-02-08T10:01:49.927Z,17.73
2023-02-08T10:05:03.826Z,18.09
2023-02-08T10:08:09.904Z,18.29
2023-02-08T10:11:40.115Z,19.11
2023-02-08T10:15:00.983Z,18.16
2023-02-08T10:18:41.226Z,19.07
2023-02-08T10:21:56.130Z,18.87
2023-02-08T10:25:25.597Z,17.80
2023-02-08T10:28:30.633Z,19.34
2023-02-08T10:32:15.162Z,19.05
2023-02-08T10:35:39.565Z,19.12
2023-02-08T10:38:46.810Z,19.66
2023-02-08T10:41:50.553Z,19.86
2023-02-08T10:45:01.666Z,19.31
2023-02-08T10:48:10.717Z,19.37
2023-02-08T10:51:16.944Z,19.77
2023-02-08T10:54:19.173Z,19.71
2023-02-08T10:57:26.094Z,18.74
2023-02-08T11:00:32.517Z,19.56
2023-02-08T11:03:35.868Z,19.81
2023-02-08T11:06:41.864Z,18.62
2023-02-08T11:09:43.996Z,19.23
2023-02-08T11:12:56.734Z,19.72
2023-02-08T11:16:01.489Z,18.82
2023-02-08T11:19:08.478Z,19.35
2023-02-08T11:22:18.035Z,19.71
2023-02-08T11:25:39.626Z,18.51
2023-02-08T11:28:42.323Z,19.38
2023-02-08T11:32:02.604Z,19.42
2023-02-08T11:35:24.538Z,18.70
2023-02-08T11:38:28.692Z,19.07
2023-02-08T11:41:34.050Z,18.81
2023-02-08T11:44:44.234Z,18.66
2023-02-08T11:47:48.532Z,18.52
2023-02-08T11:50:58.023Z,19.50
2023-02-08T11:54:04.636Z,19.52
2023-02-08T12:06:17.504Z,17.45
2023-02-08T12:10:29.904Z,17.21
2023-02-08T12:14:32.985Z,16.65
2023-02-08T12:18:22.741Z,16.85
2023-02-08T12:21:29.766Z,16.54
2023-02-08T12:24:56.943Z,16.45
2023-02-08T12:28:31.044Z,15.87
2023-02-08T12:32:06.388Z,15.74
2023-02-08T12:35:48.298Z,15.69
2023-02-08T12:39:51.821Z,15.70
2023-02-08T12:43:13.965Z,15.49
2023-02-08T12:46:49.887Z,15.63
2023-02-08T12:50:19.873Z,15.20
2023-02-08T12:53:31.141Z,15.25
2023-02-08T12:56:39.111Z,15.20
2023-02-08T12:59:55.781Z,14.70
2023-02-08T13:03:10.269Z,14.89
2023-02-08T13:06:20.771Z,15.37
2023-02-08T13:09:49.040Z,15.89
2023-02-08T13:12:53.703Z,16.54
2023-02-08T13:16:36.713Z,16.81
2023-02-08T13:19:58.997Z,15.98
2023-02-08T13:23:07.960Z,15.57
2023-02-08T13:26:23.692Z,15.48
2023-02-08T13:29:28.339Z,15.18
2023-02-08T13:32:44.481Z,15.52
2023-02-08T13:35:53.505Z,14.94
2023-02-08T13:38:58.403Z,14.72
2023-02-08T13:42:01.961Z,14.70
2023-02-08T13:45:07.788Z,14.26
2023-02-08T13:48:18.677Z,14.37
2023-02-08T13:51:34.288Z,14.35
2023-02-08T13:54:36.312Z,13.99
2023-02-08T13:57:53.501Z,14.15
2023-02-08T14:00:56.622Z,13.93
2023-02-08T14:04:07.764Z,15.38
2023-02-08T14:07:36.393Z,15.55
2023-02-08T14:10:46.805Z,15.28
2023-02-08T14:13:59.418Z,15.20
2023-02-08T14:17:04.266Z,15.30
2023-02-08T14:20:07.738Z,15.27
2023-02-08T14:23:26.424Z,15.36
2023-02-08T14:26:29.202Z,15.47
2023-02-08T14:29:33.107Z,15.12
2023-02-08T14:32:39.039Z,16.01
2023-02-08T14:35:50.781Z,16.75
2023-02-08T14:38:55.090Z,17.07
2023-02-08T14:42:01.790Z,16.82
2023-02-08T14:45:05.202Z,17.19
2023-02-08T14:48:19.473Z,17.94
2023-02-08T14:51:32.295Z,17.02
2023-02-08T14:54:46.660Z,17.55
2023-02-08T14:57:49.141Z,17.59
2023-02-08T15:00:54.282Z,17.27
2023-02-08T15:04:02.313Z,17.61
2023-02-08T15:07:15.647Z,17.64
2023-02-08T15:10:20.569Z,17.23
2023-02-08T15:13:27.697Z,17.26
2023-02-08T15:16:41.805Z,19.04
2023-02-08T15:19:46.600Z,18.18
2023-02-08T15:22:49.163Z,17.57
2023-02-08T15:25:56.914Z,18.00
2023-02-08T15:29:03.361Z,18.17
2023-02-08T15:32:14.387Z,17.50
2023-02-08T15:35:24.381Z,17.79
2023-02-08T15:38:27.293Z,18.73
2023-02-08T15:41:34.011Z,17.48
2023-02-08T15:44:36.193Z,17.54
2023-02-08T15:47:39.994Z,18.02
2023-02-08T15:50:42.387Z,17.41
2023-02-08T15:53:48.538Z,17.29
2023-02-08T15:57:05.365Z,19.07
2023-02-08T16:00:39.798Z,19.23
2023-02-08T16:03:48.377Z,19.25
2023-02-08T16:06:55.231Z,19.57
2023-02-08T16:09:58.002Z,19.00
2023-02-08T16:13:06.005Z,18.49
2023-02-08T16:16:18.729Z,18.77
2023-02-08T16:19:29.268Z,19.00
2023-02-08T16:22:33.646Z,18.08
2023-02-08T16:25:45.465Z,18.55
2023-02-08T16:29:00.927Z,18.85
2023-02-08T16:32:13.347Z,18.42
2023-02-08T16:35:25.365Z,18.99
2023-02-08T16:38:31.548Z,19.62
2023-02-08T16:41:57.238Z,17.58
2023-02-08T16:45:17.308Z,16.66
2023-02-08T16:48:35.019Z,17.76
2023-02-08T16:51:39.629Z,19.11
2023-02-08T16:54:42.231Z,18.60
2023-02-08T16:58:00.167Z,17.54
2023-02-08T17:01:03.831Z,18.39
2023-02-08T17:04:08.467Z,19.04
2023-02-08T17:07:30.135Z,17.41
2023-02-08T17:10:36.070Z,18.22
2023-02-08T17:13:41.685Z,19.16
2023-02-08T17:16:44.720Z,19.18
2023-02-08T17:19:48.000Z,17.20
2023-02-08T17:22:52.361Z,17.67
2023-02-08T17:26:06.371Z,18.82
2023-02-08T17:29:13.535Z,18.68
2023-02-08T17:32:16.376Z,16.86
2023-02-08T17:35:19.636Z,17.41
2023-02-08T17:38:22.201Z,19.12
2023-02-08T17:41:31.469Z,19.43
2023-02-08T17:44:43.890Z,17.13
2023-02-08T17:47:47.071Z,17.66
2023-02-08T17:50:52.464Z,18.63
2023-02-08T17:53:58.193Z,18.85
2023-02-08T17:57:00.682Z,16.79
2023-02-08T18:00:05.926Z,17.74
2023-02-08T18:03:14.074Z,18.93
2023-02-08T18:06:18.311Z,18.56
2023-02-08T18:09:32.956Z,16.45
2023-02-08T18:13:16.335Z,16.72
2023-02-08T18:16:38.414Z,16.91
2023-02-08T18:19:40.667Z,16.40
2023-02-08T18:22:47.886Z,16.33
2023-02-08T18:25:50.968Z,16.57
2023-02-08T18:28:55.601Z,18.05
2023-02-08T18:31:57.801Z,16.90
2023-02-08T18:35:04.261Z,16.34
2023-02-08T18:38:06.532Z,17.35
2023-02-08T18:41:21.474Z,18.07
2023-02-08T18:44:23.618Z,17.13
2023-02-08T18:47:25.768Z,17.85
2023-02-08T18:50:29.467Z,18.99
2023-02-08T18:53:35.178Z,19.18
2023-02-08T18:56:37.214Z,17.40
2023-02-08T18:59:41.647Z,17.60
2023-02-08T19:02:47.177Z,18.61
2023-02-08T19:05:49.946Z,18.73
2023-02-08T19:08:54.997Z,16.64
2023-02-08T19:11:57.718Z,17.29
2023-02-08T19:14:59.946Z,18.11
2023-02-08T19:18:02.402Z,17.80
2023-02-08T19:21:12.936Z,16.13
2023-02-08T19:24:15.670Z,16.64
2023-02-08T19:27:18.857Z,17.34
2023-02-08T19:30:22.476Z,17.44
2023-02-08T19:33:26.082Z,16.14
2023-02-08T19:36:33.512Z,16.55
2023-02-08T19:39:41.137Z,17.36
2023-02-08T19:42:46.458Z,17.26
2023-02-08T19:45:48.631Z,16.04
2023-02-08T19:48:53.282Z,16.70
2023-02-08T19:51:56.890Z,17.33
2023-02-08T19:54:59.279Z,16.83
2023-02-08T19:58:03.548Z,15.99
2023-02-08T20:01:17.862Z,16.46
2023-02-08T20:04:24.776Z,17.07
2023-02-08T20:07:26.872Z,16.09
2023-02-08T20:10:28.905Z,15.41
2023-02-08T20:13:31.055Z,15.95
2023-02-08T20:16:34.093Z,16.98
2023-02-08T20:19:38.503Z,16.15
2023-02-08T20:22:40.941Z,15.46
2023-02-08T20:25:43.442Z,15.66
2023-02-08T20:28:51.610Z,16.42
2023-02-08T20:31:56.087Z,16.00
2023-02-08T20:35:00.137Z,15.23
2023-02-08T20:38:02.929Z,15.70
2023-02-08T20:41:11.003Z,16.81
2023-02-08T20:44:23.071Z,15.70
2023-02-08T20:47:27.387Z,15.22
2023-02-08T20:50:31.019Z,15.62
2023-02-08T20:53:34.755Z,16.67
2023-02-08T20:56:38.277Z,15.44
2023-02-08T20:59:42.371Z,15.14
2023-02-08T21:02:44.463Z,15.40
2023-02-08T21:05:46.834Z,16.79
2023-02-08T21:08:51.840Z,15.26
2023-02-08T21:11:54.210Z,14.99
2023-02-08T21:15:15.088Z,15.29
2023-02-08T21:18:17.251Z,16.09
2023-02-08T21:21:20.534Z,15.02
2023-02-08T21:24:26.494Z,14.88
2023-02-08T21:27:29.424Z,15.28
2023-02-08T21:30:32.113Z,16.73
2023-02-08T21:33:37.276Z,15.80
2023-02-08T21:36:40.863Z,15.41
2023-02-08T21:39:45.425Z,16.54
2023-02-08T21:42:49.056Z,16.79
2023-02-08T21:45:51.945Z,15.83
2023-02-08T21:49:14.149Z,16.77
2023-02-08T21:52:36.128Z,17.48
2023-02-08T21:55:38.366Z,16.27
2023-02-08T21:58:40.516Z,16.86
2023-02-08T22:01:42.950Z,17.57
2023-02-08T22:05:03.908Z,15.90
2023-02-08T22:08:06.042Z,16.19
2023-02-08T22:11:09.017Z,16.87
2023-02-08T22:14:12.618Z,15.89
2023-02-08T22:17:15.283Z,15.79
2023-02-08T22:20:17.484Z,16.27
2023-02-08T22:23:19.826Z,15.94
2023-02-08T22:26:22.056Z,15.11
2023-02-08T22:29:24.111Z,16.20
2023-02-08T22:32:26.216Z,16.73
2023-02-08T22:35:28.307Z,15.37
2023-02-08T22:38:30.333Z,15.83
2023-02-08T22:41:32.527Z,16.42
2023-02-08T22:44:39.140Z,15.56
2023-02-08T22:47:41.505Z,15.11
2023-02-08T22:50:44.482Z,15.59
2023-02-08T22:53:47.023Z,15.47
2023-02-08T22:56:49.164Z,15.16
2023-02-08T22:59:52.028Z,15.27
2023-02-08T23:02:54.126Z,16.17
2023-02-08T23:05:56.878Z,14.76
2023-02-08T23:08:59.200Z,14.96
2023-02-08T23:12:01.592Z,15.99
2023-02-08T23:15:04.784Z,14.93
2023-02-08T23:18:08.468Z,15.19
2023-02-08T23:21:13.803Z,15.14
2023-02-08T23:24:17.117Z,14.82
2023-02-08T23:27:19.382Z,14.64
2023-02-08T23:30:21.588Z,14.96
2023-02-08T23:33:23.667Z,15.73
2023-02-08T23:36:25.881Z,14.42
2023-02-08T23:39:27.886Z,14.64
2023-02-08T23:42:29.877Z,15.12
2023-02-08T23:45:32.141Z,14.53
2023-02-08T23:48:36.733Z,14.60
2023-02-08T23:51:40.086Z,15.24
2023-02-08T23:54:42.362Z,14.81
2023-02-08T23:57:44.373Z,14.67
